createdAt,value
2022-10-02T00:02:05.700Z,101202.22
2022-10-02T00:04:59.482Z,101208.53
2022-10-02T00:07:34.210Z,101201.84
2022-10-02T00:10:09.550Z,101214.50
2022-10-02T00:12:36.195Z,101206.44
2022-10-02T00:15:13.223Z,101204.88
2022-10-02T00:17:43.931Z,101208.88
2022-10-02T00:20:17.818Z,101210.38
2022-10-02T00:23:02.218Z,101215.53
2022-10-02T00:25:55.998Z,101224.66
2022-10-02T00:29:04.566Z,101223.41
2022-10-02T00:31:47.846Z,101224.91
2022-10-02T00:34:21.610Z,101224.38
2022-10-02T00:36:57.222Z,101226.81
2022-10-02T00:40:02.210Z,101228.88
2022-10-02T00:42:36.537Z,101231.13
2022-10-02T00:45:22.958Z,101229.03
2022-10-02T00:48:01.166Z,101236.00
2022-10-02T00:50:54.054Z,101246.84
2022-10-02T00:53:33.370Z,101238.94
2022-10-02T00:56:21.001Z,101235.13
2022-10-02T00:59:03.792Z,101245.34
2022-10-02T01:01:58.439Z,101239.91
2022-10-02T01:04:34.091Z,101241.38
2022-10-02T01:07:02.079Z,101237.94
2022-10-02T01:09:28.641Z,101233.84
2022-10-02T01:11:55.803Z,101238.41
2022-10-02T01:14:31.959Z,101242.97
2022-10-02T01:16:58.399Z,101246.81
2022-10-02T01:19:41.407Z,101249.53
2022-10-02T01:22:32.533Z,101248.44
2022-10-02T01:25:04.289Z,101250.53
2022-10-02T01:27:35.447Z,101254.00
2022-10-02T01:30:07.568Z,101260.63
2022-10-02T01:32:37.866Z,101261.50
2022-10-02T01:35:05.121Z,101256.28
2022-10-02T01:37:35.139Z,101260.59
2022-10-02T01:40:11.240Z,101264.75
2022-10-02T01:42:39.618Z,101269.09
2022-10-02T01:45:07.896Z,101269.41
2022-10-02T01:47:49.479Z,101269.09
2022-10-02T01:50:47.533Z,101278.88
2022-10-02T01:53:20.072Z,101284.84
2022-10-02T01:56:34.940Z,101282.34
2022-10-02T01:59:05.228Z,101286.91
2022-10-02T02:01:41.869Z,101276.50
2022-10-02T02:04:33.781Z,101282.53
2022-10-02T02:07:10.163Z,101285.06
2022-10-02T02:09:54.500Z,101285.59
2022-10-02T02:12:26.364Z,101285.84
2022-10-02T02:15:01.818Z,101286.72
2022-10-02T02:17:50.518Z,101296.47
2022-10-02T02:20:32.995Z,101290.94
2022-10-02T02:23:06.690Z,101300.06
2022-10-02T02:25:39.673Z,101292.66
2022-10-02T02:28:12.496Z,101298.84
2022-10-02T02:30:42.210Z,101295.63
2022-10-02T02:33:19.569Z,101303.22
2022-10-02T02:35:50.337Z,101306.69
2022-10-02T02:38:24.749Z,101304.53
2022-10-02T02:40:51.654Z,101305.81
2022-10-02T02:43:23.988Z,101300.94
2022-10-02T02:45:56.271Z,101309.09
2022-10-02T02:48:26.597Z,101312.56
2022-10-02T02:51:04.810Z,101314.53
2022-10-02T02:53:40.561Z,101303.75
2022-10-02T02:56:12.901Z,101312.25
2022-10-02T02:58:54.515Z,101309.44
2022-10-02T03:01:21.277Z,101300.53
2022-10-02T03:03:48.385Z,101301.28
2022-10-02T03:06:20.496Z,101304.41
2022-10-02T03:08:50.330Z,101302.44
2022-10-02T03:11:33.391Z,101306.16
2022-10-02T03:14:21.230Z,101309.72
2022-10-02T03:17:28.892Z,101316.59
2022-10-02T03:20:03.540Z,101311.50
2022-10-02T03:22:48.132Z,101315.94
2022-10-02T03:25:26.303Z,101316.94
2022-10-02T03:28:43.389Z,101318.00
2022-10-02T03:31:09.504Z,101316.03
2022-10-02T03:33:37.349Z,101318.44
2022-10-02T03:36:04.868Z,101322.03
2022-10-02T03:38:33.055Z,101323.53
2022-10-02T03:40:59.509Z,101328.88
2022-10-02T03:43:29.455Z,101323.63
2022-10-02T03:45:55.958Z,101337.47
2022-10-02T03:48:23.192Z,101335.50
2022-10-02T03:50:52.570Z,101334.75
2022-10-02T03:53:21.958Z,101334.09
2022-10-02T03:56:02.720Z,101343.00
2022-10-02T03:58:29.510Z,101344.19
2022-10-02T04:01:04.469Z,101349.06
2022-10-02T04:03:32.112Z,101350.50
2022-10-02T04:06:03.703Z,101344.06
2022-10-02T04:08:55.737Z,101343.19
2022-10-02T04:11:30.575Z,101348.88
2022-10-02T04:14:10.141Z,101347.13
2022-10-02T04:16:51.082Z,101341.78
2022-10-02T04:19:23.255Z,101359.41
2022-10-02T04:21:59.212Z,101353.53
2022-10-02T04:24:45.553Z,101346.88
2022-10-02T04:27:36.599Z,101346.47
2022-10-02T04:30:12.154Z,101348.97
2022-10-02T04:32:38.586Z,101357.78
2022-10-02T04:35:26.261Z,101347.66
2022-10-02T04:38:31.182Z,101354.06
2022-10-02T04:41:24.529Z,101356.03
2022-10-02T04:44:30.856Z,101348.63
2022-10-02T04:47:12.718Z,101347.13
2022-10-02T04:49:54.295Z,101346.47
2022-10-02T04:52:47.687Z,101345.38
2022-10-02T04:55:36.043Z,101353.53
2022-10-02T04:58:35.514Z,101353.44
2022-10-02T05:01:17.440Z,101352.94
2022-10-02T05:03:52.901Z,101361.38
2022-10-02T05:06:32.325Z,101363.09
2022-10-02T05:09:40.213Z,101371.63
2022-10-02T05:12:31.526Z,101370.63
2022-10-02T05:15:35.648Z,101375.56
2022-10-02T05:18:36.021Z,101389.50
2022-10-02T05:21:26.673Z,101387.16
2022-10-02T05:24:03.325Z,101395.16
2022-10-02T05:26:48.558Z,101396.06
2022-10-02T05:30:05.167Z,101410.13
2022-10-02T05:32:54.609Z,101409.28
2022-10-02T05:35:49.689Z,101415.44
2022-10-02T05:38:25.085Z,101430.91
2022-10-02T05:40:57.278Z,101429.91
2022-10-02T05:43:35.542Z,101424.13
2022-10-02T05:46:09.996Z,101422.75
2022-10-02T05:48:47.310Z,101428.09
2022-10-02T05:51:23.792Z,101423.44
2022-10-02T05:53:58.062Z,101424.06
2022-10-02T05:56:32.296Z,101434.53
2022-10-02T05:59:05.456Z,101427.84
2022-10-02T06:01:37.597Z,101440.25
2022-10-02T06:04:14.886Z,101432.25
2022-10-02T06:06:57.192Z,101441.56
2022-10-02T06:09:27.452Z,101441.75
2022-10-02T06:12:12.443Z,101443.28
2022-10-02T06:14:44.517Z,101456.53
2022-10-02T06:17:20.397Z,101468.28
2022-10-02T06:20:04.086Z,101471.00
2022-10-02T06:22:45.087Z,101467.06
2022-10-02T06:25:47.207Z,101478.34
2022-10-02T06:28:15.667Z,101470.75
2022-10-02T06:30:57.165Z,101465.75
2022-10-02T06:33:25.229Z,101468.59
2022-10-02T06:35:57.394Z,101469.47
2022-10-02T06:38:37.867Z,101478.59
2022-10-02T06:41:13.258Z,101486.44
2022-10-02T06:44:08.062Z,101485.69
2022-10-02T06:47:07.054Z,101492.28
2022-10-02T06:50:09.776Z,101503.59
2022-10-02T06:52:58.120Z,101508.00
2022-10-02T06:55:35.981Z,101502.91
2022-10-02T06:58:19.397Z,101524.00
2022-10-02T07:01:18.685Z,101520.47
2022-10-02T07:04:05.809Z,101527.81
2022-10-02T07:06:39.481Z,101526.78
2022-10-02T07:09:33.064Z,101526.09
2022-10-02T07:12:25.760Z,101533.91
2022-10-02T07:15:18.183Z,101537.50
2022-10-02T07:18:07.228Z,101532.03
2022-10-02T07:20:36.388Z,101533.94
2022-10-02T07:23:30.364Z,101542.44
2022-10-02T07:26:15.398Z,101536.00
2022-10-02T07:29:07.674Z,101542.84
2022-10-02T07:32:01.289Z,101542.22
2022-10-02T07:35:03.030Z,101545.22
2022-10-02T07:37:50.335Z,101541.44
2022-10-02T07:40:23.830Z,101552.88
2022-10-02T07:43:24.161Z,101554.25
2022-10-02T07:45:53.683Z,101564.91
2022-10-02T07:48:41.784Z,101556.88
2022-10-02T07:51:43.347Z,101563.94
2022-10-02T07:54:09.743Z,101554.50
2022-10-02T07:56:37.756Z,101565.78
2022-10-02T07:59:10.922Z,101573.00
2022-10-02T08:01:41.402Z,101562.53
2022-10-02T08:04:17.263Z,101561.44
2022-10-02T08:06:47.009Z,101573.00
2022-10-02T08:09:13.351Z,101573.22
2022-10-02T08:12:11.686Z,101573.22
2022-10-02T08:14:41.156Z,101583.03
2022-10-02T08:17:27.519Z,101589.63
2022-10-02T08:20:02.771Z,101592.16
2022-10-02T08:22:46.547Z,101595.78
2022-10-02T08:25:12.831Z,101603.88
2022-10-02T08:27:56.037Z,101597.00
2022-10-02T08:30:22.479Z,101601.28
2022-10-02T08:32:56.452Z,101600.00
2022-10-02T08:35:35.823Z,101611.47
2022-10-02T08:38:14.277Z,101623.56
2022-10-02T08:41:22.956Z,101634.66
2022-10-02T08:44:32.987Z,101626.66
2022-10-02T08:47:33.266Z,101629.91
2022-10-02T08:50:25.423Z,101629.91
2022-10-02T08:52:57.498Z,101636.00
2022-10-02T08:55:44.244Z,101634.22
2022-10-02T08:58:32.184Z,101639.13
2022-10-02T09:01:10.746Z,101648.22
2022-10-02T09:03:59.251Z,101644.03
2022-10-02T09:06:59.859Z,101644.97
2022-10-02T09:09:50.795Z,101651.94
2022-10-02T09:12:41.488Z,101650.41
2022-10-02T09:15:16.906Z,101655.00
2022-10-02T09:17:47.755Z,101662.16
2022-10-02T09:20:49.557Z,101657.06
2022-10-02T09:23:40.742Z,101658.06
2022-10-02T09:26:25.591Z,101670.75
2022-10-02T09:29:34.514Z,101672.09
2022-10-02T09:32:26.660Z,101686.84
2022-10-02T09:35:10.307Z,101682.34
2022-10-02T09:38:03.774Z,101692.09
2022-10-02T09:40:48.663Z,101693.66
2022-10-02T09:43:18.007Z,101695.41
2022-10-02T09:46:19.949Z,101701.81
2022-10-02T09:49:17.361Z,101703.69
2022-10-02T09:52:08.174Z,101713.03
2022-10-02T09:54:49.112Z,101709.78
2022-10-02T09:57:39.659Z,101705.84
2022-10-02T10:00:24.916Z,101704.63
2022-10-02T10:03:36.793Z,101713.59
2022-10-02T10:06:22.066Z,101717.63
2022-10-02T10:09:13.207Z,101712.50
2022-10-02T10:14:40.665Z,101725.16
2022-10-02T10:17:19.224Z,101730.78
2022-10-02T10:20:22.758Z,101740.22
2022-10-02T10:23:00.853Z,101732.22
2022-10-02T10:26:04.645Z,101751.06
2022-10-02T10:28:52.515Z,101752.97
2022-10-02T10:31:28.221Z,101761.25
2022-10-02T10:34:19.568Z,101763.63
2022-10-02T10:37:22.586Z,101752.31
2022-10-02T10:40:15.583Z,101755.28
2022-10-02T10:43:07.743Z,101763.56
2022-10-02T10:45:54.128Z,101771.47
2022-10-02T10:48:23.635Z,101766.88
2022-10-02T10:51:14.259Z,101778.75
2022-10-02T10:54:01.018Z,101776.03
2022-10-02T10:56:36.704Z,101773.41
2022-10-02T10:59:42.260Z,101777.81
2022-10-02T11:02:27.296Z,101780.09
2022-10-02T11:04:57.636Z,101803.22
2022-10-02T11:07:47.496Z,101795.41
2022-10-02T11:10:38.479Z,101796.81
2022-10-02T11:13:29.202Z,101801.31
2022-10-02T11:16:02.569Z,101801.00
2022-10-02T11:18:38.801Z,101809.50
2022-10-02T11:21:41.276Z,101816.16
2022-10-02T11:24:22.939Z,101821.84
2022-10-02T11:27:06.865Z,101817.25
2022-10-02T11:29:54.124Z,101818.66
2022-10-02T11:32:31.710Z,101819.41
2022-10-02T11:35:13.455Z,101821.81
2022-10-02T11:37:39.752Z,101820.88
2022-10-02T11:40:34.762Z,101830.63
2022-10-02T11:43:01.036Z,101833.06
2022-10-02T11:45:43.688Z,101832.13
2022-10-02T11:48:28.490Z,101830.06
2022-10-02T11:51:10.283Z,101828.66
2022-10-02T11:53:51.850Z,101827.19
2022-10-02T11:57:01.803Z,101833.66
2022-10-02T11:59:46.525Z,101850.19
2022-10-02T12:02:23.764Z,101851.34
2022-10-02T12:05:35.426Z,101847.72
2022-10-02T12:08:16.873Z,101838.84
2022-10-02T12:11:05.300Z,101855.38
2022-10-02T12:13:41.976Z,101852.97
2022-10-02T12:16:29.832Z,101849.56
2022-10-02T12:19:23.184Z,101856.88
2022-10-02T12:22:18.694Z,101860.50
2022-10-02T12:25:30.375Z,101872.91
2022-10-02T12:28:23.407Z,101869.16
2022-10-02T12:31:02.401Z,101878.25
2022-10-02T12:33:59.832Z,101867.50
2022-10-02T12:37:02.584Z,101875.97
2022-10-02T12:39:44.155Z,101875.63
2022-10-02T12:42:13.970Z,101873.06
2022-10-02T12:45:00.730Z,101870.63
2022-10-02T12:47:54.241Z,101876.28
2022-10-02T12:51:02.144Z,101887.34
2022-10-02T12:53:53.203Z,101892.25
2022-10-02T12:56:28.668Z,101902.88
2022-10-02T12:59:25.494Z,101890.28
2022-10-02T13:03:00.418Z,101899.72
2022-10-02T13:05:36.498Z,101896.41
2022-10-02T13:08:31.401Z,101898.13
2022-10-02T13:11:22.038Z,101898.53
2022-10-02T13:14:27.324Z,101907.03
2022-10-02T13:17:16.830Z,101898.13
2022-10-02T13:20:14.434Z,101907.16
2022-10-02T13:22:59.501Z,101910.94
2022-10-02T13:25:44.177Z,101913.00
2022-10-02T13:28:50.835Z,101911.19
2022-10-02T13:31:26.219Z,101906.78
2022-10-02T13:34:19.080Z,101920.09
2022-10-02T13:37:08.882Z,101921.25
2022-10-02T13:39:54.957Z,101911.78
2022-10-02T13:42:47.263Z,101918.84
2022-10-02T13:45:13.591Z,101921.09
2022-10-02T13:47:47.593Z,101919.97
2022-10-02T13:50:32.253Z,101927.56
2022-10-02T13:53:19.768Z,101925.38
2022-10-02T13:56:04.669Z,101934.84
2022-10-02T13:58:47.003Z,101934.81
2022-10-02T14:01:18.484Z,101938.44
2022-10-02T14:04:03.256Z,101938.03
2022-10-02T14:06:41.510Z,101942.44
2022-10-02T14:09:20.726Z,101941.31
2022-10-02T14:12:12.040Z,101942.91
2022-10-02T14:15:27.394Z,101945.69
2022-10-02T14:18:10.211Z,101954.00
2022-10-02T14:20:36.487Z,101944.88
2022-10-02T14:23:18.837Z,101956.50
2022-10-02T14:26:05.863Z,101956.66
2022-10-02T14:29:08.374Z,101947.00
2022-10-02T14:31:54.139Z,101962.59
2022-10-02T14:34:26.579Z,101971.84
2022-10-02T14:37:16.499Z,101968.41
2022-10-02T14:39:44.630Z,101972.50
2022-10-02T14:42:30.243Z,101974.28
2022-10-02T14:45:00.457Z,101976.69
2022-10-02T14:47:51.303Z,101989.88
2022-10-02T14:50:55.762Z,101978.59
2022-10-02T14:54:09.193Z,101988.91
2022-10-02T14:56:58.986Z,101987.38
2022-10-02T14:59:58.842Z,101992.59
2022-10-02T15:02:42.382Z,102000.66
2022-10-02T15:05:23.920Z,102009.47
2022-10-02T15:07:50.986Z,102009.56
2022-10-02T15:10:27.225Z,102013.31
2022-10-02T15:13:05.931Z,102019.38
2022-10-02T15:15:49.670Z,102020.69
2022-10-02T15:18:40.076Z,102025.78
2022-10-02T15:21:32.202Z,102024.72
2022-10-02T15:24:13.288Z,102036.78
2022-10-02T15:27:08.405Z,102039.78
2022-10-02T15:30:00.061Z,102027.81
2022-10-02T15:32:53.726Z,102035.41
2022-10-02T15:35:46.991Z,102049.22
2022-10-02T15:38:50.626Z,102048.00
2022-10-02T15:41:42.144Z,102060.59
2022-10-02T15:44:10.027Z,102053.59
2022-10-02T15:46:45.459Z,102056.41
2022-10-02T15:49:38.450Z,102065.84
2022-10-02T15:52:23.968Z,102066.28
2022-10-02T15:55:00.299Z,102075.13
2022-10-02T15:57:50.497Z,102077.53
2022-10-02T16:00:20.144Z,102071.06
2022-10-02T16:02:58.535Z,102083.06
2022-10-02T16:05:53.132Z,102079.28
2022-10-02T16:08:33.918Z,102082.50
2022-10-02T16:11:21.869Z,102096.09
2022-10-02T16:14:00.118Z,102099.66
2022-10-02T16:16:41.921Z,102115.59
2022-10-02T16:19:42.720Z,102113.31
2022-10-02T16:22:09.028Z,102125.28
2022-10-02T16:24:44.412Z,102125.66
2022-10-02T16:27:47.895Z,102129.59
2022-10-02T16:30:21.128Z,102131.94
2022-10-02T16:33:06.061Z,102133.69
2022-10-02T16:35:53.722Z,102137.72
2022-10-02T16:38:43.054Z,102146.44
2022-10-02T16:41:27.890Z,102137.16
2022-10-02T16:44:05.552Z,102150.53
2022-10-02T16:46:51.974Z,102151.75
2022-10-02T16:49:30.375Z,102154.31
2022-10-02T16:52:20.345Z,102163.44
2022-10-02T16:54:47.052Z,102158.53
2022-10-02T16:57:35.415Z,102168.88
2022-10-02T17:00:22.743Z,102165.53
2022-10-02T17:03:08.972Z,102176.97
2022-10-02T17:05:45.726Z,102171.88
2022-10-02T17:08:20.757Z,102173.13
2022-10-02T17:11:14.360Z,102184.56
2022-10-02T17:13:49.911Z,102188.19
2022-10-02T17:16:36.774Z,102191.78
2022-10-02T17:19:24.257Z,102186.72
2022-10-02T17:22:06.322Z,102197.56
2022-10-02T17:25:00.127Z,102208.81
2022-10-02T17:27:32.606Z,102206.97
2022-10-02T17:30:24.458Z,102207.72
2022-10-02T17:33:09.858Z,102210.84
2022-10-02T17:35:45.131Z,102213.91
2022-10-02T17:38:42.185Z,102218.13
2022-10-02T17:41:11.507Z,102231.13
2022-10-02T17:43:56.560Z,102233.06
2022-10-02T17:46:30.944Z,102242.16
2022-10-02T17:49:32.768Z,102241.13
2022-10-02T17:52:42.459Z,102239.72
2022-10-02T17:56:05.062Z,102247.63
2022-10-02T17:58:55.821Z,102245.97
2022-10-02T18:01:32.697Z,102252.59
2022-10-02T18:04:19.739Z,102258.81
2022-10-02T18:07:21.639Z,102264.66
2022-10-02T18:10:03.374Z,102271.25
2022-10-02T18:13:08.377Z,102267.22
2022-10-02T18:15:42.511Z,102271.91
2022-10-02T18:18:24.033Z,102270.19
2022-10-02T18:20:59.430Z,102271.91
2022-10-02T18:23:40.682Z,102276.63
2022-10-02T18:26:18.053Z,102277.25
2022-10-02T18:29:01.250Z,102281.31
2022-10-02T18:31:57.702Z,102287.13
2022-10-02T18:34:33.826Z,102275.25
2022-10-02T18:37:34.785Z,102288.56
2022-10-02T18:40:17.692Z,102294.88
2022-10-02T18:42:53.766Z,102293.66
2022-10-02T18:45:44.176Z,102292.06
2022-10-02T18:48:21.122Z,102288.56
2022-10-02T18:51:00.583Z,102304.38
2022-10-02T18:54:15.282Z,102307.47
2022-10-02T18:57:15.289Z,102308.81
2022-10-02T19:00:00.574Z,102309.19
2022-10-02T19:02:51.733Z,102312.31
2022-10-02T19:05:35.343Z,102322.41
2022-10-02T19:08:04.656Z,102329.25
2022-10-02T19:10:31.088Z,102325.75
2022-10-02T19:13:17.613Z,102322.16
2022-10-02T19:15:47.169Z,102321.13
2022-10-02T19:18:25.414Z,102329.97
2022-10-02T19:21:12.232Z,102325.59
2022-10-02T19:23:40.729Z,102336.47
2022-10-02T19:26:23.512Z,102333.94
2022-10-02T19:28:55.399Z,102334.81
2022-10-02T19:31:29.372Z,102333.16
2022-10-02T19:34:11.300Z,102339.56
2022-10-02T19:36:43.374Z,102337.84
2022-10-02T19:39:19.080Z,102339.75
2022-10-02T19:41:46.233Z,102345.16
2022-10-02T19:44:38.825Z,102352.25
2022-10-02T19:47:15.786Z,102345.22
2022-10-02T19:49:46.587Z,102353.50
2022-10-02T19:52:58.067Z,102350.28
2022-10-02T19:55:29.058Z,102357.31
2022-10-02T19:58:04.400Z,102360.97
2022-10-02T20:00:32.196Z,102362.28
2022-10-02T20:03:02.438Z,102362.00
2022-10-02T20:05:31.886Z,102362.66
2022-10-02T20:08:06.580Z,102354.97
2022-10-02T20:10:37.855Z,102357.00
2022-10-02T20:13:17.063Z,102373.69
2022-10-02T20:16:12.436Z,102383.09
2022-10-02T20:18:39.470Z,102385.78
2022-10-02T20:21:22.553Z,102389.25
2022-10-02T20:23:57.101Z,102391.97
2022-10-02T20:26:27.596Z,102390.06
2022-10-02T20:29:01.726Z,102394.44
2022-10-02T20:31:40.593Z,102388.72
2022-10-02T20:34:23.749Z,102392.97
2022-10-02T20:37:05.385Z,102404.81
2022-10-02T20:39:38.453Z,102409.84
2022-10-02T20:42:32.033Z,102414.72
2022-10-02T20:44:58.508Z,102420.28
2022-10-02T20:47:41.280Z,102430.81
2022-10-02T20:50:25.341Z,102429.16
2022-10-02T20:53:29.297Z,102432.88
2022-10-02T20:56:28.777Z,102430.84
2022-10-02T20:59:36.369Z,102436.34
2022-10-02T21:02:21.905Z,102442.16
2022-10-02T21:04:57.284Z,102439.19
2022-10-02T21:07:47.051Z,102438.69
2022-10-02T21:10:37.677Z,102441.97
2022-10-02T21:13:16.470Z,102447.38
2022-10-02T21:16:04.045Z,102445.47
2022-10-02T21:19:00.007Z,102447.88
2022-10-02T21:21:53.669Z,102447.69
2022-10-02T21:24:39.845Z,102454.41
2022-10-02T21:27:18.197Z,102457.19
2022-10-02T21:30:19.320Z,102459.78
2022-10-02T21:32:55.577Z,102464.72
2022-10-02T21:35:36.090Z,102465.81
2022-10-02T21:38:39.760Z,102464.41
2022-10-02T21:41:35.380Z,102471.28
2022-10-02T21:44:41.088Z,102475.09
2022-10-02T21:47:13.375Z,102480.44
2022-10-02T21:50:16.913Z,102484.38
2022-10-02T21:52:58.754Z,102488.06
2022-10-02T21:56:03.130Z,102488.97
2022-10-02T21:58:41.700Z,102491.06
2022-10-02T22:02:07.386Z,102493.06
2022-10-02T22:04:53.309Z,102491.69
2022-10-02T22:07:44.053Z,102493.75
2022-10-02T22:10:40.087Z,102485.09
2022-10-02T22:13:25.341Z,102489.75
2022-10-02T22:15:57.541Z,102484.63
2022-10-02T22:18:39.397Z,102488.47
2022-10-02T22:21:38.539Z,102484.63
2022-10-02T22:24:11.545Z,102486.16
2022-10-02T22:27:01.765Z,102483.88
2022-10-02T22:29:44.499Z,102490.38
2022-10-02T22:33:08.765Z,102493.19
2022-10-02T22:36:03.059Z,102488.81
2022-10-02T22:38:34.597Z,102489.38
2022-10-02T22:41:06.755Z,102492.34
2022-10-02T22:43:45.389Z,102494.81
2022-10-02T22:46:30.646Z,102498.56
2022-10-02T22:49:01.952Z,102498.41
2022-10-02T22:51:42.896Z,102500.28
2022-10-02T22:54:22.000Z,102498.00
2022-10-02T22:56:57.974Z,102506.00
2022-10-02T22:59:38.891Z,102505.22
2022-10-02T23:02:17.243Z,102505.13
2022-10-02T23:04:57.148Z,102511.28
2022-10-02T23:07:30.015Z,102513.03
2022-10-02T23:10:05.879Z,102510.28
2022-10-02T23:12:58.138Z,102520.72
2022-10-02T23:15:43.277Z,102518.94
2022-10-02T23:18:28.647Z,102519.06
2022-10-02T23:21:18.009Z,102519.81
2022-10-02T23:23:55.849Z,102526.47
2022-10-02T23:26:30.031Z,102521.63
2022-10-02T23:29:14.922Z,102527.47
2022-10-02T23:32:02.995Z,102531.66
2022-10-02T23:34:53.801Z,102532.59
2022-10-02T23:37:33.114Z,102538.03
2022-10-02T23:40:19.500Z,102532.53
2022-10-02T23:42:56.180Z,102531.78
2022-10-02T23:45:29.556Z,102527.19
2022-10-02T23:48:04.152Z,102532.94
2022-10-02T23:50:36.573Z,102539.53
2022-10-02T23:53:41.270Z,102538.41
2022-10-02T23:56:19.783Z,102546.50
2022-10-02T23:59:01.351Z,102540.53
